Time;durP1;ratioP1;P1;durP2;ratioP2;P2;SDS_P1;SDS_P2;PMS_P1;PMS_P2;Temp;Humidity;BMP_temperature;BMP_pressure;BME280_temperature;BME280_humidity;BME280_pressure;Samples;Min_cycle;Max_cycle;Signal;HPM_P1;HPM_P2
2022/11/07 00:00:50;;;;;;;1.60;0.50;;;;;;;19.01;47.84;100725.56;16124931;19;129405;-42
2022/11/07 00:06:12;;;;;;;2.38;0.75;;;;;;;18.99;48.01;100718.59;16125159;19;130440;-42
2022/11/07 00:11:33;;;;;;;1.10;0.65;;;;;;;18.98;47.88;100723.28;16120019;19;131085;-42
2022/11/07 00:16:56;;;;;;;1.95;0.60;;;;;;;18.97;48.04;100720.78;16123225;19;130193;-42
2022/11/07 00:22:18;;;;;;;1.80;0.50;;;;;;;18.94;48.06;100724.03;16121155;19;129611;-41
2022/11/07 00:27:40;;;;;;;0.93;0.40;;;;;;;18.93;48.19;100728.75;16125193;19;129899;-38
2022/11/07 00:33:01;;;;;;;1.88;0.63;;;;;;;18.91;48.00;100733.72;16121046;19;129782;-42
2022/11/07 00:38:23;;;;;;;0.60;0.30;;;;;;;18.90;48.43;100734.81;16120195;19;130061;-42
2022/11/07 00:43:45;;;;;;;1.75;0.60;;;;;;;18.88;48.34;100739.75;16119428;19;129381;-42
2022/11/07 00:49:07;;;;;;;1.80;0.50;;;;;;;18.87;48.53;100746.38;16132499;19;130113;-42
2022/11/07 00:54:28;;;;;;;1.88;0.65;;;;;;;18.86;48.61;100753.03;16134170;19;130518;-40
2022/11/07 00:59:50;;;;;;;1.35;0.40;;;;;;;18.84;48.14;100767.16;16137784;19;129827;-42
2022/11/07 01:05:12;;;;;;;0.98;0.50;;;;;;;18.83;48.50;100765.47;16134081;19;130778;-42
2022/11/07 01:10:39;;;;;;;1.10;0.30;;;;;;;18.84;48.33;100752.44;16130924;19;130151;-40
2022/11/07 01:16:02;;;;;;;2.35;0.50;;;;;;;18.82;48.55;100765.72;16132822;19;129386;-43
2022/11/07 01:21:23;;;;;;;1.02;0.35;;;;;;;18.81;48.33;100772.34;16135690;19;130193;-40
2022/11/07 01:26:46;;;;;;;0.80;0.50;;;;;;;18.80;48.46;100770.69;16131757;19;129146;-40
2022/11/07 01:32:08;;;;;;;0.75;0.40;;;;;;;18.79;48.40;100775.38;16133144;19;130160;-41
2022/11/07 01:37:30;;;;;;;2.05;0.60;;;;;;;18.77;48.66;100766.44;16130287;19;129561;-41
2022/11/07 01:42:52;;;;;;;1.08;0.40;;;;;;;18.76;48.32;100779.47;16129017;19;129109;-40
2022/11/07 01:48:13;;;;;;;1.20;0.38;;;;;;;18.74;48.79;100770.56;16127031;19;130649;-41
2022/11/07 01:53:36;;;;;;;1.42;0.57;;;;;;;18.72;48.86;100772.75;16128421;19;129372;-40
2022/11/07 01:58:58;;;;;;;0.45;0.35;;;;;;;18.72;48.50;100769.16;16128266;19;130551;-40
2022/11/07 02:04:24;;;;;;;1.20;0.52;;;;;;;18.71;48.92;100768.28;16127644;19;129620;-41
2022/11/07 02:09:47;;;;;;;;;;;;;;;18.69;48.59;100761.34;16126880;19;130826;-40
2022/11/07 02:15:09;;;;;;;0.70;0.40;;;;;;;18.69;48.46;100764.97;16125765;19;129802;-38
2022/11/07 02:20:31;;;;;;;0.77;0.38;;;;;;;18.68;48.53;100767.97;16128634;19;130651;-39
2022/11/07 02:25:53;;;;;;;2.70;0.68;;;;;;;18.67;48.89;100772.69;16127570;19;129465;-39
2022/11/07 02:31:15;;;;;;;1.63;0.40;;;;;;;18.65;48.84;100772.09;16128230;19;129760;-41
2022/11/07 02:36:37;;;;;;;1.83;0.40;;;;;;;18.66;48.89;100772.91;16129615;19;129135;-42
2022/11/07 02:42:00;;;;;;;1.33;0.43;;;;;;;18.64;48.92;100778.72;16130023;19;129650;-42
2022/11/07 02:47:22;;;;;;;2.67;0.45;;;;;;;18.64;48.67;100773.19;16125145;19;129322;-41
2022/11/07 02:52:43;;;;;;;0.77;0.40;;;;;;;18.64;48.70;100775.94;16126889;19;129568;-42
2022/11/07 02:58:05;;;;;;;1.15;0.57;;;;;;;18.64;48.79;100773.19;16127829;19;129485;-42
2022/11/07 03:03:34;;;;;;;0.60;0.40;;;;;;;18.63;49.02;100770.66;16125777;19;129682;-41
2022/11/07 03:08:56;;;;;;;1.60;0.40;;;;;;;18.63;48.95;100768.72;16126094;19;129838;-38
2022/11/07 03:14:17;;;;;;;1.00;0.40;;;;;;;18.61;48.63;100773.66;16123192;19;129822;-40
2022/11/07 03:19:39;;;;;;;2.50;0.45;;;;;;;18.61;48.81;100784.75;16128956;19;129366;-43
2022/11/07 03:25:01;;;;;;;1.58;0.75;;;;;;;18.60;49.11;100769.22;16124653;19;129581;-42
2022/11/07 03:30:23;;;;;;;1.42;0.60;;;;;;;18.58;48.86;100774.19;16124196;19;130184;-41
2022/11/07 03:35:45;;;;;;;3.53;0.60;;;;;;;18.58;48.99;100779.72;16124408;19;130622;-39
2022/11/07 03:41:06;;;;;;;1.85;0.57;;;;;;;18.57;49.14;100789.13;16124561;19;129314;-42
2022/11/07 03:46:28;;;;;;;1.63;0.50;;;;;;;18.56;48.71;100781.91;16122878;19;129903;-39
2022/11/07 03:51:50;;;;;;;1.42;0.50;;;;;;;18.57;48.71;100783.59;16123994;19;128896;-42
2022/11/07 03:57:11;;;;;;;1.83;0.50;;;;;;;18.56;49.06;100776.38;16123088;19;130903;-40
2022/11/07 04:02:33;;;;;;;3.22;0.70;;;;;;;18.56;48.76;100781.91;16118068;19;129669;-40
2022/11/07 04:07:55;;;;;;;2.55;0.68;;;;;;;18.54;48.62;100781.31;16121123;19;129583;-41
2022/11/07 04:18:57;;;;;;;3.35;0.57;;;;;;;18.52;48.80;100792.66;16119074;19;130386;-42
2022/11/07 04:24:19;;;;;;;4.47;0.60;;;;;;;18.51;48.95;100788.19;16134223;19;133056;-41
2022/11/07 04:29:41;;;;;;;2.40;0.60;;;;;;;18.51;48.52;100787.34;16135871;19;129613;-40
2022/11/07 04:35:03;;;;;;;2.05;0.60;;;;;;;18.51;48.91;100790.09;16136965;19;129852;-41
2022/11/07 04:40:26;;;;;;;3.70;0.73;;;;;;;18.50;48.52;100802.28;16134098;19;133084;-40
2022/11/07 04:45:47;;;;;;;2.78;0.60;;;;;;;18.49;48.73;100795.06;16132274;19;129463;-41
2022/11/07 04:51:15;;;;;;;2.53;0.70;;;;;;;18.49;48.35;100801.44;16134837;19;129673;-43
2022/11/07 04:56:37;;;;;;;1.45;0.55;;;;;;;18.48;48.71;100802.53;16134303;19;129506;-41
2022/11/07 05:02:00;;;;;;;3.35;0.60;;;;;;;18.48;48.64;100801.69;16136490;19;128991;-42
2022/11/07 05:07:22;;;;;;;3.88;0.88;;;;;;;18.46;48.73;100800.00;16133731;19;130656;-42
2022/11/07 05:12:44;;;;;;;2.35;0.57;;;;;;;18.46;48.16;100800.00;16136591;19;129832;-41
2022/11/07 05:18:05;;;;;;;1.58;0.47;;;;;;;18.46;48.41;100800.00;16133588;19;130185;-42
2022/11/07 05:23:27;;;;;;;2.28;0.55;;;;;;;18.46;48.23;100808.31;16129228;19;129439;-41
2022/11/07 05:28:49;;;;;;;2.88;0.82;;;;;;;18.44;48.75;100813.28;16131874;19;129274;-43
2022/11/07 05:34:10;;;;;;;1.73;0.63;;;;;;;18.44;48.40;100804.97;16127745;19;129345;-42
2022/11/07 05:39:35;;;;;;;3.40;0.70;;;;;;;18.43;48.52;100811.59;16130042;19;129083;-40
2022/11/07 05:44:57;;;;;;;2.10;0.52;;;;;;;18.43;48.48;100821.81;16127347;19;129445;-34
2022/11/07 05:50:18;;;;;;;1.92;0.70;;;;;;;18.40;48.27;100817.63;16127945;19;129401;-34
2022/11/07 05:55:40;;;;;;;2.42;0.70;;;;;;;18.38;48.23;100819.75;16128842;19;129509;-33
2022/11/07 06:01:04;;;;;;;2.83;0.80;;;;;;;18.38;48.54;100825.31;16129343;19;130407;-33
2022/11/07 06:06:26;;;;;;;2.55;0.77;;;;;;;18.36;48.57;100821.94;16122460;19;130040;-33
2022/11/07 06:11:48;;;;;;;1.50;0.50;;;;;;;18.36;48.45;100821.94;16127619;19;129883;-33
2022/11/07 06:17:10;;;;;;;2.97;0.63;;;;;;;18.36;48.92;100832.19;16126222;19;130120;-33
2022/11/07 06:22:31;;;;;;;1.35;0.40;;;;;;;18.36;48.67;100844.09;16121372;19;129508;-33
2022/11/07 06:28:02;;;;;;;3.63;0.88;;;;;;;18.38;48.79;100841.91;16124032;19;129554;-34
2022/11/07 06:33:24;;;;;;;4.57;0.80;;;;;;;18.40;48.85;100850.84;16123806;19;129863;-32
2022/11/07 06:38:51;;;;;;;3.40;0.63;;;;;;;18.42;48.65;100858.91;16123985;19;129307;-33
2022/11/07 06:44:14;;;;;;;4.63;0.90;;;;;;;18.40;48.70;100878.56;16121355;19;129816;-33
2022/11/07 06:49:36;;;;;;;4.65;0.65;;;;;;;18.38;48.59;100866.03;16125512;19;129697;-33
2022/11/07 06:54:57;;;;;;;3.78;0.75;;;;;;;18.38;48.60;100875.16;16124279;19;130098;-33
2022/11/07 07:00:19;;;;;;;6.05;0.80;;;;;;;18.36;49.11;100888.41;16122056;19;129924;-33
2022/11/07 07:05:41;;;;;;;2.50;0.60;;;;;;;18.34;48.59;100882.25;16123888;19;130082;-33
2022/11/07 07:11:05;;;;;;;2.35;0.73;;;;;;;18.34;48.86;100890.56;16124641;19;130872;-33
2022/11/07 07:16:27;;;;;;;2.90;0.80;;;;;;;18.33;49.05;100894.47;16122104;19;130652;-33
2022/11/07 07:21:49;;;;;;;3.78;0.70;;;;;;;18.33;48.97;100893.59;16124848;19;129836;-33
2022/11/07 07:27:10;;;;;;;3.10;0.63;;;;;;;18.31;48.91;100897.44;16122114;19;130252;-33
2022/11/07 07:32:34;;;;;;;4.05;0.90;;;;;;;18.31;48.83;100905.75;16119810;19;129589;-33
2022/11/07 07:37:56;;;;;;;4.45;0.77;;;;;;;18.30;49.08;100906.84;16120751;19;129270;-33
2022/11/07 07:43:18;;;;;;;5.85;0.80;;;;;;;18.29;48.83;100904.34;16120737;19;129983;-33
2022/11/07 07:48:40;;;;;;;7.57;1.35;;;;;;;18.29;48.86;100904.34;16122436;19;130835;-33
2022/11/07 07:54:02;;;;;;;3.78;0.80;;;;;;;18.27;48.71;100912.03;16122031;19;129439;-33
2022/11/07 07:59:24;;;;;;;6.78;0.88;;;;;;;18.27;48.82;100906.50;16136538;19;129690;-34
2022/11/07 08:04:45;;;;;;;7.63;0.73;;;;;;;18.27;48.98;100909.28;16135732;19;129696;-34
2022/11/07 08:10:07;;;;;;;4.25;0.63;;;;;;;18.27;49.05;100920.34;16136906;19;129712;-33
2022/11/07 08:15:50;;;;;;;3.97;1.02;;;;;;;18.26;49.04;100913.13;16137573;19;129437;-33
2022/11/07 08:21:12;;;;;;;3.90;0.77;;;;;;;18.25;48.81;100916.97;16137032;19;128955;-33
2022/11/07 08:26:36;;;;;;;3.58;0.90;;;;;;;18.25;49.03;100916.97;16132807;19;129431;-33
2022/11/07 08:31:57;;;;;;;5.38;1.17;;;;;;;18.24;48.64;100930.00;16135835;19;129417;-33
2022/11/07 08:37:19;;;;;;;2.83;0.80;;;;;;;18.24;48.75;100935.53;16132296;19;129475;-33
2022/11/07 08:42:41;;;;;;;4.65;1.10;;;;;;;18.24;48.77;100926.38;16134892;19;129621;-33
2022/11/07 08:48:03;;;;;;;3.42;0.68;;;;;;;18.23;48.64;100933.84;16134978;19;129759;-33
2022/11/07 08:53:25;;;;;;;7.07;0.70;;;;;;;18.23;48.70;100938.53;16132979;19;129456;-33
2022/11/07 08:58:47;;;;;;;3.53;1.20;;;;;;;18.23;48.56;100939.38;16132413;19;129167;-33
2022/11/07 09:04:09;;;;;;;4.57;0.90;;;;;;;18.22;48.68;100953.44;16132506;19;129662;-33
2022/11/07 09:09:31;;;;;;;3.20;0.80;;;;;;;18.21;48.75;100954.56;16129431;19;129435;-33
2022/11/07 09:14:52;;;;;;;5.32;0.98;;;;;;;18.20;49.03;100959.25;16128594;19;129412;-33
2022/11/07 09:20:14;;;;;;;5.35;1.15;;;;;;;18.20;48.70;100950.09;16131262;19;129460;-33
2022/11/07 09:25:36;;;;;;;5.35;1.05;;;;;;;18.22;48.55;100959.00;16132158;19;129600;-33
2022/11/07 09:31:00;;;;;;;3.80;1.05;;;;;;;18.24;48.38;100956.81;16130029;19;129486;-33
2022/11/07 09:36:23;;;;;;;12.20;1.67;;;;;;;18.24;48.47;100951.28;16131229;19;129667;-33
2022/11/07 09:42:00;;;;;;;4.57;1.20;;;;;;;18.26;48.43;100949.13;16132831;19;132821;-33
2022/11/07 09:47:36;;;;;;;5.57;0.88;;;;;;;18.27;48.02;100961.88;16129335;19;129960;-33
2022/11/07 09:53:09;;;;;;;4.88;1.20;;;;;;;18.22;48.17;100964.53;16129492;19;129695;-33
2022/11/07 09:58:39;;;;;;;5.68;1.08;;;;;;;18.25;48.01;100975.97;16128639;19;129464;-33
2022/11/07 10:04:01;;;;;;;7.68;1.23;;;;;;;18.27;47.85;100984.03;16128088;19;129894;-33
2022/11/07 10:09:51;;;;;;;8.70;1.58;;;;;;;18.30;47.89;100984.38;16127687;19;129488;-33
2022/11/07 10:15:22;;;;;;;7.40;1.10;;;;;;;18.31;47.88;100979.72;16126335;19;129467;-33
2022/11/07 10:21:06;;;;;;;6.75;1.42;;;;;;;18.32;47.54;100992.47;16131027;19;129495;-33
2022/11/07 10:26:48;;;;;;;5.75;1.67;;;;;;;18.28;47.57;100992.09;16127638;19;130121;-33
2022/11/07 10:32:45;;;;;;;6.35;1.23;;;;;;;18.29;47.59;101002.09;16126339;19;129220;-33
2022/11/07 10:38:29;;;;;;;12.18;1.92;;;;;;;18.27;47.48;101004.28;16127357;19;129966;-33
2022/11/07 10:44:10;;;;;;;8.82;1.73;;;;;;;18.29;47.69;101010.41;16127000;19;129473;-33
2022/11/07 10:49:31;;;;;;;8.75;1.67;;;;;;;18.28;47.46;101003.16;16124472;19;129577;-33
2022/11/07 10:55:15;;;;;;;7.38;1.10;;;;;;;18.28;47.38;101005.13;16124707;19;129317;-33
2022/11/07 11:00:40;;;;;;;5.63;1.30;;;;;;;18.25;47.67;101002.81;16128171;19;129512;-33
2022/11/07 11:06:17;;;;;;;9.03;1.60;;;;;;;18.25;47.19;100995.38;16124874;19;129752;-33
2022/11/07 11:11:39;;;;;;;7.72;1.40;;;;;;;18.24;47.52;100985.38;16125521;19;130137;-33
2022/11/07 11:17:01;;;;;;;7.20;1.10;;;;;;;18.23;47.25;100986.47;16123793;19;129297;-33
2022/11/07 11:22:24;;;;;;;7.45;1.45;;;;;;;18.23;47.43;100985.59;16124544;19;129379;-33
2022/11/07 11:27:50;;;;;;;6.45;1.08;;;;;;;18.22;47.52;100993.06;16123426;19;130697;-33
2022/11/07 11:33:21;;;;;;;4.32;1.00;;;;;;;18.23;47.50;100996.69;16121258;19;129607;-33
2022/11/07 11:38:51;;;;;;;5.50;1.30;;;;;;;18.22;47.28;100992.22;16123792;19;128898;-33
2022/11/07 11:44:19;;;;;;;6.43;1.10;;;;;;;18.24;47.04;100984.50;16120413;19;129566;-33
2022/11/07 11:49:46;;;;;;;8.77;1.52;;;;;;;18.24;47.21;100984.50;16121974;19;129301;-33
2022/11/07 11:55:16;;;;;;;5.60;1.40;;;;;;;18.25;47.00;100986.19;16120866;19;129702;-33
2022/11/07 12:00:46;;;;;;;5.63;1.30;;;;;;;18.23;47.21;100982.81;16120568;19;129451;-33
2022/11/07 12:06:19;;;;;;;7.15;1.40;;;;;;;18.24;47.15;100984.50;16121442;19;129361;-33
2022/11/07 12:12:03;;;;;;;6.88;1.38;;;;;;;18.24;47.35;100978.97;16124307;19;129587;-33
2022/11/07 12:17:49;;;;;;;5.85;1.27;;;;;;;18.23;47.05;100977.28;16118754;19;130876;-33
2022/11/07 12:23:19;;;;;;;4.00;1.13;;;;;;;18.21;47.14;100969.25;16118416;19;129496;-33
2022/11/07 12:29:04;;;;;;;5.28;1.17;;;;;;;18.20;47.03;100972.25;16120199;19;129339;-33
2022/11/07 12:34:48;;;;;;;9.60;1.83;;;;;;;18.20;47.41;100970.31;16117939;19;130149;-33
2022/11/07 12:40:36;;;;;;;6.97;1.27;;;;;;;18.19;47.35;100968.63;16119564;19;129899;-33
2022/11/07 12:46:16;;;;;;;8.13;1.25;;;;;;;18.20;47.22;100972.25;16134022;19;129755;-33
2022/11/07 12:51:38;;;;;;;5.32;1.13;;;;;;;18.18;47.20;100968.88;16134245;19;129771;-33
2022/11/07 12:57:04;;;;;;;5.32;1.20;;;;;;;18.18;47.24;100957.81;16134868;19;134308;-33
2022/11/07 13:02:42;;;;;;;3.63;1.13;;;;;;;18.20;46.92;100955.66;16132110;19;129412;-33
2022/11/07 13:08:17;;;;;;;4.10;1.08;;;;;;;18.19;47.21;100951.19;16133427;19;129068;-33
2022/11/07 13:14:03;;;;;;;3.97;1.05;;;;;;;18.19;46.96;100943.72;16133895;19;128871;-33
2022/11/07 13:19:27;;;;;;;6.63;1.23;;;;;;;18.18;47.38;100949.50;16134390;19;132751;-33
2022/11/07 13:25:05;;;;;;;4.63;1.20;;;;;;;18.18;47.10;100949.50;16132113;19;129932;-33
2022/11/07 13:30:38;;;;;;;4.20;1.33;;;;;;;18.18;46.86;100941.19;16130341;19;129489;-33
2022/11/07 13:36:12;;;;;;;6.68;1.45;;;;;;;18.18;47.12;100942.03;16136091;19;129369;-33
2022/11/07 13:41:35;;;;;;;4.88;1.08;;;;;;;18.17;47.16;100948.66;16130482;19;129390;-33
2022/11/07 13:47:04;;;;;;;5.18;1.52;;;;;;;18.17;47.06;100942.28;16132529;19;130023;-33
2022/11/07 13:52:36;;;;;;;4.55;1.13;;;;;;;18.17;46.98;100940.34;16131296;19;129521;-33
2022/11/07 13:58:05;;;;;;;4.90;1.17;;;;;;;18.17;46.99;100945.03;16132606;19;129599;-33
2022/11/07 14:03:28;;;;;;;6.03;1.35;;;;;;;18.14;47.18;100947.22;16130375;19;129514;-33
2022/11/07 14:08:50;;;;;;;6.13;1.55;;;;;;;18.14;46.97;100944.44;16130805;19;129629;-33
2022/11/07 14:14:12;;;;;;;6.70;1.17;;;;;;;18.14;46.76;100940.84;16127257;19;129469;-33
2022/11/07 14:19:34;;;;;;;6.35;1.15;;;;;;;18.12;46.80;100932.75;16127529;19;129471;-33
2022/11/07 14:24:56;;;;;;;6.22;1.13;;;;;;;18.13;47.09;100940.00;16127557;19;129551;-33
2022/11/07 14:30:19;;;;;;;2.63;0.95;;;;;;;18.12;47.14;100938.31;16125833;19;129264;-33
2022/11/07 14:35:44;;;;;;;5.88;1.30;;;;;;;18.12;47.09;100932.75;16127860;19;129634;-33
2022/11/07 14:41:11;;;;;;;6.97;1.37;;;;;;;18.12;46.71;100943.84;16127104;19;129618;-33
2022/11/07 14:46:33;;;;;;;5.22;1.10;;;;;;;18.11;47.01;100947.69;16124111;19;130555;-33
2022/11/07 14:51:55;;;;;;;5.22;0.93;;;;;;;18.09;47.07;100941.53;16124375;19;132443;-33
2022/11/07 14:57:17;;;;;;;5.35;0.93;;;;;;;18.10;47.00;100945.16;16125038;19;129905;-33
2022/11/07 15:02:38;;;;;;;5.05;1.20;;;;;;;18.10;47.00;100943.22;16127893;19;129796;-33
2022/11/07 15:08:01;;;;;;;6.53;1.10;;;;;;;18.10;47.22;100948.78;16125017;19;129028;-33
2022/11/07 15:13:28;;;;;;;3.97;0.70;;;;;;;18.09;47.10;100941.53;16125849;19;129761;-33
2022/11/07 15:19:24;;;;;;;4.25;1.17;;;;;;;18.10;46.95;100946.00;16123898;19;130285;-33
2022/11/07 15:24:46;;;;;;;3.72;1.00;;;;;;;18.07;46.73;100940.97;16122907;19;130137;-34
2022/11/07 15:30:23;;;;;;;5.78;1.02;;;;;;;18.09;46.93;100949.03;16122497;19;129810;-36
2022/11/07 15:35:48;;;;;;;5.22;1.10;;;;;;;18.07;47.03;100945.66;16124580;19;129812;-33
2022/11/07 15:41:10;;;;;;;6.83;1.33;;;;;;;18.06;46.59;100952.28;16124750;19;130017;-33
2022/11/07 15:46:36;;;;;;;5.00;1.08;;;;;;;18.06;46.95;100938.44;16120917;19;129427;-33
2022/11/07 15:51:59;;;;;;;7.82;1.08;;;;;;;18.05;46.73;100932.06;16121544;19;129256;-33
2022/11/07 15:57:21;;;;;;;4.10;1.08;;;;;;;18.04;46.64;100947.00;16122253;19;129832;-33
2022/11/07 16:02:43;;;;;;;4.63;1.00;;;;;;;18.04;46.88;100946.13;16120825;19;129596;-33
2022/11/07 16:08:07;;;;;;;4.85;1.15;;;;;;;18.03;47.05;100939.75;16119194;19;130098;-33
2022/11/07 16:13:29;;;;;;;6.35;1.10;;;;;;;18.04;46.99;100946.13;16117539;19;129536;-33
2022/11/07 16:18:52;;;;;;;3.40;1.20;;;;;;;18.03;47.05;100956.38;16129083;19;129290;-34
2022/11/07 16:24:15;;;;;;;3.22;1.15;;;;;;;18.03;46.69;100961.91;16131716;19;129405;-33
2022/11/07 16:29:39;;;;;;;2.92;1.10;;;;;;;18.03;46.70;100959.16;16134899;19;129628;-33
2022/11/07 16:35:00;;;;;;;5.80;0.98;;;;;;;18.02;47.10;100964.94;16131891;19;130263;-33
2022/11/07 16:40:22;;;;;;;11.27;1.80;;;;;;;18.02;46.77;100970.47;16132452;19;129236;-34
2022/11/07 16:45:55;;;;;;;4.93;0.93;;;;;;;18.03;47.16;100966.63;16134432;19;129326;-33
2022/11/07 16:51:20;;;;;;;4.75;1.00;;;;;;;18.03;47.01;100961.91;16134640;19;129647;-33
2022/11/07 16:56:46;;;;;;;8.05;1.20;;;;;;;18.04;47.10;100963.59;16133118;19;129854;-33
2022/11/07 17:02:19;;;;;;;7.50;1.00;;;;;;;18.07;46.96;100965.03;16129259;19;129233;-33
2022/11/07 17:07:42;;;;;;;2.40;0.65;;;;;;;18.06;47.31;100966.97;16134892;19;129463;-33
2022/11/07 17:13:04;;;;;;;4.10;1.05;;;;;;;18.06;47.42;100969.75;16134344;19;129339;-33
2022/11/07 17:18:26;;;;;;;3.13;0.88;;;;;;;18.08;47.19;100970.34;16131289;19;129587;-33
2022/11/07 17:23:48;;;;;;;3.42;0.80;;;;;;;18.07;47.58;100963.13;16133300;19;129509;-33
2022/11/07 17:29:12;;;;;;;2.72;0.63;;;;;;;18.08;47.44;100959.28;16126366;19;129131;-33
2022/11/07 17:34:34;;;;;;;6.80;0.98;;;;;;;18.08;47.34;100967.56;16129110;19;130724;-33
2022/11/07 17:39:55;;;;;;;5.70;0.80;;;;;;;18.08;47.37;100950.97;16129849;19;130085;-43
2022/11/07 17:45:17;;;;;;;3.28;0.80;;;;;;;18.09;47.69;100963.69;16127876;19;129808;-43
2022/11/07 17:50:39;;;;;;;4.18;0.80;;;;;;;18.10;47.67;100965.38;16131037;19;129726;-43
2022/11/07 17:56:00;;;;;;;3.58;0.90;;;;;;;18.10;47.73;100967.31;16128782;19;130251;-42
2022/11/07 18:01:24;;;;;;;5.85;1.20;;;;;;;18.10;47.92;100959.03;16127096;19;129629;-42
2022/11/07 18:06:46;;;;;;;4.80;1.20;;;;;;;18.11;47.66;100975.38;16125135;19;129243;-42
2022/11/07 18:12:09;;;;;;;4.72;1.00;;;;;;;18.12;47.76;100971.53;16126421;19;129227;-43
2022/11/07 18:17:31;;;;;;;7.10;1.30;;;;;;;18.18;48.28;100957.81;16127120;19;130467;-42
2022/11/07 18:22:52;;;;;;;4.47;1.00;;;;;;;18.37;47.95;100962.09;16127821;19;129453;-42
2022/11/07 18:28:14;;;;;;;4.07;0.77;;;;;;;18.73;47.76;100959.28;16128014;19;129241;-42
2022/11/07 18:33:37;;;;;;;5.05;0.98;;;;;;;19.21;46.96;100959.94;16131662;19;129676;-42
2022/11/07 18:39:13;;;;;;;3.92;0.93;;;;;;;19.60;46.78;100960.06;16130018;19;129377;-41
2022/11/07 18:44:35;;;;;;;5.38;0.88;;;;;;;19.80;46.39;100967.03;16125666;19;129260;-42
2022/11/07 18:49:57;;;;;;;6.68;1.35;;;;;;;19.88;46.45;100963.84;16124508;19;130707;-42
2022/11/07 18:55:18;;;;;;;8.75;1.42;;;;;;;19.88;46.41;100968.56;16124546;19;130006;-42
2022/11/07 19:00:47;;;;;;;9.05;0.88;;;;;;;19.86;46.49;100973.53;16127721;19;129684;-43
2022/11/07 19:06:12;;;;;;;29.52;1.52;;;;;;;19.78;46.48;100974.78;16126013;19;130397;-40
2022/11/07 19:11:34;;;;;;;19.47;1.43;;;;;;;19.70;46.68;100984.38;16122476;19;129797;-42
2022/11/07 19:16:56;;;;;;;16.65;1.05;;;;;;;19.62;47.01;100977.31;16122394;19;130699;-42
2022/11/07 19:22:18;;;;;;;14.13;1.77;;;;;;;19.55;46.80;100976.63;16120716;19;129495;-43
2022/11/07 19:27:40;;;;;;;17.83;1.75;;;;;;;19.49;46.87;100972.94;16123515;19;131866;-42
2022/11/07 19:33:02;;;;;;;8.60;0.90;;;;;;;19.42;46.81;100977.78;16123777;19;129076;-43
2022/11/07 19:38:24;;;;;;;11.73;1.08;;;;;;;19.37;46.93;100977.72;16121152;19;129496;-43
2022/11/07 19:43:48;;;;;;;8.85;1.20;;;;;;;19.33;46.93;100982.06;16120674;19;129742;-42
2022/11/07 19:49:10;;;;;;;12.53;1.10;;;;;;;19.27;46.84;100985.81;16120395;19;129578;-42
2022/11/07 19:54:32;;;;;;;13.77;1.27;;;;;;;19.24;46.99;100980.81;16133989;19;131018;-43
2022/11/07 19:59:54;;;;;;;15.07;1.92;;;;;;;19.21;46.85;100982.13;16136940;19;129378;-40
2022/11/07 20:05:22;;;;;;;23.95;2.78;;;;;;;19.17;47.47;100976.19;16136591;19;129384;-43
2022/11/07 20:10:49;;;;;;;15.38;1.73;;;;;;;19.17;47.63;100980.91;16137474;19;129688;-42
2022/11/07 20:16:11;;;;;;;15.38;1.33;;;;;;;19.22;47.44;100992.13;16135568;19;129425;-41
2022/11/07 20:21:33;;;;;;;20.08;1.88;;;;;;;19.34;47.59;100992.06;16132660;19;129505;-43
2022/11/07 20:26:55;;;;;;;14.45;1.27;;;;;;;19.47;47.51;100985.34;16131261;19;129867;-40
2022/11/07 20:32:17;;;;;;;28.45;2.13;;;;;;;19.60;47.30;100985.03;16132145;19;129787;-42
2022/11/07 20:37:40;;;;;;;31.05;2.80;;;;;;;19.72;47.02;100986.88;16132728;19;131313;-40
2022/11/07 20:43:02;;;;;;;19.83;1.90;;;;;;;19.85;46.67;100992.09;16135446;19;129419;-43
2022/11/07 20:48:23;;;;;;;13.73;1.90;;;;;;;19.96;46.42;100977.28;16129774;19;129781;-41
2022/11/07 20:53:46;;;;;;;21.05;1.70;;;;;;;20.04;46.52;100978.00;16131820;19;129262;-43
2022/11/07 20:59:11;;;;;;;10.38;1.30;;;;;;;20.05;46.65;100976.91;16130400;19;130189;-41
2022/11/07 21:04:32;;;;;;;17.88;1.73;;;;;;;20.04;46.53;100976.03;16125050;19;129710;-42
2022/11/07 21:10:14;;;;;;;11.25;1.42;;;;;;;20.01;46.88;100972.94;16126601;19;130783;-43
2022/11/07 21:15:36;;;;;;;9.02;1.20;;;;;;;19.96;47.11;100977.28;16129568;19;129386;-43
2022/11/07 21:21:17;;;;;;;11.13;1.42;;;;;;;19.94;46.99;100989.75;16129242;19;129600;-43
2022/11/07 21:26:39;;;;;;;15.00;1.65;;;;;;;19.87;47.00;100983.53;16123359;19;130813;-43
2022/11/07 21:32:01;;;;;;;9.38;1.23;;;;;;;19.81;46.81;100977.88;16125544;19;129722;-40
2022/11/07 21:37:23;;;;;;;8.13;1.60;;;;;;;19.78;46.83;100974.78;16128467;19;131121;-42
2022/11/07 21:42:44;;;;;;;7.07;1.42;;;;;;;19.75;47.18;100975.28;16127364;19;133728;-42
2022/11/07 21:48:06;;;;;;;17.23;1.58;;;;;;;19.73;47.15;100971.91;16124776;19;129978;-42
2022/11/07 21:53:28;;;;;;;7.82;1.33;;;;;;;19.67;46.96;100969.06;16126058;19;130317;-42
2022/11/07 21:58:55;;;;;;;12.10;2.08;;;;;;;19.62;47.08;100965.38;16126565;19;129472;-38
2022/11/07 22:09:48;;;;;;;20.05;2.38;;;;;;;19.47;47.32;100940.97;16107615;19;129652;-33
2022/11/07 22:15:10;;;;;;;10.35;1.58;;;;;;;19.39;47.10;100942.22;16121270;19;129565;-33
2022/11/07 22:20:32;;;;;;;10.65;1.52;;;;;;;19.30;47.46;100930.72;16124658;19;129300;-33
2022/11/07 22:25:53;;;;;;;9.18;1.70;;;;;;;19.26;47.75;100935.06;16127989;19;129630;-33
2022/11/07 22:31:24;;;;;;;8.27;1.48;;;;;;;19.21;47.68;100926.66;16122852;19;130218;-33
2022/11/07 22:36:46;;;;;;;5.03;1.10;;;;;;;19.16;47.99;100929.31;16126631;19;129701;-33
2022/11/07 22:42:07;;;;;;;5.68;1.13;;;;;;;19.12;47.87;100928.13;16125112;19;129287;-33
2022/11/07 22:47:29;;;;;;;7.00;1.10;;;;;;;19.08;47.89;100916.69;16125740;19;129539;-33
2022/11/07 22:52:51;;;;;;;4.70;0.77;;;;;;;19.05;47.83;100920.81;16127377;19;129586;-33
2022/11/07 22:58:12;;;;;;;4.40;0.90;;;;;;;19.00;48.34;100904.06;16124691;19;129467;-33
2022/11/07 23:03:34;;;;;;;5.10;1.00;;;;;;;18.99;48.21;100894.06;16123488;19;130105;-33
2022/11/07 23:08:58;;;;;;;9.73;1.08;;;;;;;18.98;48.27;100900.72;16122676;19;129473;-33
2022/11/07 23:14:20;;;;;;;3.63;0.85;;;;;;;18.95;48.12;100901.22;16123649;19;129105;-33
2022/11/07 23:19:42;;;;;;;3.63;0.90;;;;;;;18.94;48.44;100901.47;16121698;19;129494;-33
2022/11/07 23:25:04;;;;;;;3.67;0.77;;;;;;;;;;16123860;19;129954;-33
2022/11/07 23:30:26;;;;;;;6.13;0.80;;;;;;;18.89;48.19;100893.91;16124565;19;129749;-33
2022/11/07 23:35:48;;;;;;;3.40;0.57;;;;;;;18.87;48.53;100893.28;16118933;19;130457;-33
2022/11/07 23:41:13;;;;;;;4.63;0.70;;;;;;;18.86;48.33;100888.84;16121045;19;129786;-33
2022/11/07 23:52:16;;;;;;;3.75;0.60;;;;;;;18.81;49.17;100881.28;16119664;19;129583;-33
